Time;durP1;ratioP1;P1;durP2;ratioP2;P2;SDS_P1;SDS_P2;PMS_P1;PMS_P2;Temp;Humidity;BMP_temperature;BMP_pressure;BME280_temperature;BME280_humidity;BME280_pressure;Samples;Min_cycle;Max_cycle;Signal;HPM_P1;HPM_P2
2021/04/29 00:00:16;;;;;;;24.43;18.30;;;9.70;99.90;9.10;95861.00;;;;5086579;28;20252;-68
2021/04/29 00:03:04;;;;;;;26.80;18.23;;;9.70;99.90;9.10;95865.00;;;;5086153;28;20218;-68
2021/04/29 00:05:52;;;;;;;25.63;18.93;;;9.70;99.90;9.10;95866.00;;;;5086297;28;20219;-67
2021/04/29 00:08:40;;;;;;;23.63;16.73;;;9.70;99.90;9.00;95868.00;;;;5085950;28;20246;-71
2021/04/29 00:11:28;;;;;;;20.00;16.67;;;9.70;99.90;9.00;95863.00;;;;5086930;28;20242;-68
2021/04/29 00:14:17;;;;;;;25.07;16.37;;;9.70;99.90;9.00;95855.00;;;;5086410;28;20211;-69
2021/04/29 00:17:05;;;;;;;23.20;16.10;;;9.60;99.90;8.90;95859.00;;;;5086492;28;20608;-68
2021/04/29 00:19:53;;;;;;;25.70;17.60;;;9.60;99.90;8.90;95855.00;;;;5086140;28;20207;-70
2021/04/29 00:22:42;;;;;;;27.60;17.40;;;9.60;99.90;8.80;95863.00;;;;5086664;28;20223;-69
2021/04/29 00:25:30;;;;;;;22.50;16.27;;;9.60;99.90;8.80;95844.00;;;;5097415;28;20275;-69
2021/04/29 00:28:17;;;;;;;23.80;14.50;;;9.50;99.90;8.70;95842.00;;;;5086185;28;20211;-68
2021/04/29 00:31:06;;;;;;;25.90;17.37;;;9.50;99.90;8.70;95844.00;;;;5085860;28;20216;-68
2021/04/29 00:33:54;;;;;;;28.37;18.10;;;9.40;99.90;8.60;95843.00;;;;5085941;28;20681;-68
2021/04/29 00:36:42;;;;;;;24.40;16.43;;;9.40;99.90;8.50;95839.00;;;;5086762;28;20588;-69
2021/04/29 00:39:30;;;;;;;27.90;17.00;;;9.30;99.90;8.40;95837.00;;;;5085204;28;20203;-70
2021/04/29 00:42:19;;;;;;;29.57;17.63;;;9.20;99.90;8.30;95831.00;;;;5086008;28;20238;-67
2021/04/29 00:45:09;;;;;;;25.07;16.53;;;9.20;99.90;8.20;95831.00;;;;5096790;28;20264;-68
2021/04/29 00:47:58;;;;;;;23.43;17.87;;;9.10;99.90;8.10;95826.00;;;;5090466;28;20833;-68
2021/04/29 00:50:46;;;;;;;27.60;18.90;;;9.00;99.90;8.00;95831.00;;;;5096072;28;20991;-69
2021/04/29 00:53:38;;;;;;;23.07;16.87;;;8.90;99.90;7.80;95822.00;;;;5085240;28;20195;-69
2021/04/29 00:56:25;;;;;;;25.17;17.00;;;8.80;99.90;7.70;95826.00;;;;5085458;28;20203;-69
2021/04/29 00:59:14;;;;;;;21.70;16.27;;;8.70;99.90;7.70;95827.00;;;;5083521;28;20682;-68
2021/04/29 01:02:05;;;;;;;27.47;18.00;;;8.60;99.90;7.60;95831.00;;;;5086367;28;20249;-69
2021/04/29 01:04:59;;;;;;;23.50;16.70;;;8.50;99.90;7.50;95825.00;;;;5084996;28;20238;-68
2021/04/29 01:07:54;;;;;;;27.03;17.80;;;8.40;99.90;7.30;95826.00;;;;5084833;28;20217;-68
2021/04/29 01:10:48;;;;;;;23.30;16.27;;;8.30;99.90;7.10;95815.00;;;;5085459;28;20191;-67
2021/04/29 01:13:38;;;;;;;28.47;16.23;;;8.20;99.90;7.00;95821.00;;;;5085729;28;20203;-69
2021/04/29 01:16:27;;;;;;;29.33;17.70;;;8.10;99.90;7.00;95822.00;;;;5085994;28;20222;-68
2021/04/29 01:19:18;;;;;;;23.93;17.53;;;7.90;99.90;7.00;95815.00;;;;5097347;28;20204;-68
2021/04/29 01:22:07;;;;;;;24.10;17.37;;;7.90;99.90;6.90;95811.00;;;;5086755;28;20216;-69
2021/04/29 01:25:04;;;;;;;23.40;16.40;;;7.80;99.90;6.80;95809.00;;;;5085445;28;20594;-68
2021/04/29 01:27:53;;;;;;;27.53;17.83;;;7.70;99.90;6.70;95815.00;;;;5084771;28;20203;-69
2021/04/29 01:30:44;;;;;;;28.20;17.50;;;7.60;99.90;6.60;95822.00;;;;5086189;28;20207;-68
2021/04/29 01:33:32;;;;;;;27.63;19.17;;;7.60;99.90;6.60;95818.00;;;;5085286;28;20204;-69
2021/04/29 01:36:22;;;;;;;25.50;19.67;;;7.50;99.90;6.50;95825.00;;;;5085528;28;20674;-71
2021/04/29 01:39:13;;;;;;;28.83;19.10;;;7.40;99.90;6.40;95818.00;;;;5082787;28;20206;-68
2021/04/29 01:42:01;;;;;;;28.93;18.73;;;7.40;99.90;6.40;95816.00;;;;5085018;28;20242;-69
2021/04/29 01:44:50;;;;;;;34.87;21.57;;;7.30;99.90;6.30;95816.00;;;;5086103;28;20622;-68
2021/04/29 01:47:38;;;;;;;33.93;21.57;;;7.30;99.90;6.20;95811.00;;;;5084849;28;20673;-69
2021/04/29 01:50:27;;;;;;;33.80;21.20;;;7.20;99.90;6.20;95810.00;;;;5092888;28;20198;-70
2021/04/29 01:53:15;;;;;;;34.37;21.00;;;7.10;99.90;6.10;95818.00;;;;5087149;28;20903;-69
2021/04/29 01:56:04;;;;;;;32.90;22.93;;;7.10;99.90;6.10;95815.00;;;;5077196;28;20914;-69
2021/04/29 01:58:52;;;;;;;30.20;20.97;;;7.00;99.90;6.10;95816.00;;;;5092550;28;20211;-68
2021/04/29 02:01:43;;;;;;;35.20;21.53;;;6.90;99.90;5.80;95814.00;;;;5087072;28;20248;-68
2021/04/29 02:04:31;;;;;;;30.83;21.23;;;6.90;99.90;5.80;95818.00;;;;5083508;28;20690;-69
2021/04/29 02:07:19;;;;;;;39.30;24.10;;;6.80;99.90;5.70;95818.00;;;;5083889;28;20681;-69
2021/04/29 02:10:09;;;;;;;29.23;20.93;;;6.70;99.90;5.70;95809.00;;;;5086580;28;20358;-69
2021/04/29 02:12:57;;;;;;;36.53;22.43;;;6.30;99.90;5.70;95803.00;;;;5095152;28;20203;-69
2021/04/29 02:15:52;;;;;;;31.40;21.57;;;6.60;99.90;5.60;95799.00;;;;5088046;28;20203;-69
2021/04/29 02:18:45;;;;;;;34.57;22.40;;;6.50;99.90;5.50;95810.00;;;;5088484;28;20693;-69
2021/04/29 02:21:34;;;;;;;34.10;22.00;;;6.50;99.90;5.50;95806.00;;;;5086391;28;20717;-67
2021/04/29 02:24:23;;;;;;;39.17;23.03;;;6.40;99.90;5.60;95799.00;;;;5087789;28;20206;-69
2021/04/29 02:27:12;;;;;;;35.60;23.03;;;6.40;99.90;5.60;95799.00;;;;5088091;28;20588;-68
2021/04/29 02:30:00;;;;;;;39.00;22.20;;;6.40;99.90;5.50;95809.00;;;;5079783;28;20196;-69
2021/04/29 02:32:48;;;;;;;36.20;23.03;;;6.40;99.90;5.50;95798.00;;;;5101465;28;20233;-68
2021/04/29 02:35:37;;;;;;;34.17;19.60;;;6.30;99.90;5.50;95799.00;;;;5087581;28;20196;-67
2021/04/29 02:38:28;;;;;;;34.40;19.43;;;6.30;99.90;5.40;95791.00;;;;5087187;28;20210;-69
2021/04/29 02:41:17;;;;;;;30.83;19.60;;;6.30;99.90;5.00;95800.00;;;;5088408;28;20231;-68
2021/04/29 02:44:06;;;;;;;29.87;18.87;;;6.20;99.90;5.00;95786.00;;;;5088717;28;20608;-68
2021/04/29 02:46:55;;;;;;;30.10;20.33;;;6.10;99.90;5.10;95787.00;;;;5088829;28;20207;-67
2021/04/29 02:49:43;;;;;;;33.87;19.57;;;6.00;99.90;5.10;95800.00;;;;5087460;28;20265;-68
2021/04/29 02:52:32;;;;;;;31.23;19.97;;;6.00;99.90;5.00;95793.00;;;;5088492;28;20245;-67
2021/04/29 02:55:21;;;;;;;28.00;19.93;;;5.90;99.90;4.90;95785.00;;;;5086737;28;20211;-69
2021/04/29 02:58:11;;;;;;;34.13;21.33;;;5.90;99.90;4.80;95786.00;;;;5100839;28;20703;-70
2021/04/29 03:01:00;;;;;;;30.67;22.23;;;5.80;99.90;4.40;95783.00;;;;5087610;28;20612;-69
2021/04/29 03:03:48;;;;;;;34.43;23.43;;;5.60;99.90;4.60;95790.00;;;;5086027;28;20347;-68
2021/04/29 03:06:36;;;;;;;41.87;22.67;;;5.60;99.90;4.80;95789.00;;;;5087179;28;20250;-69
2021/04/29 03:09:25;;;;;;;38.43;22.03;;;5.60;99.90;4.80;95778.00;;;;5086418;28;20441;-69
2021/04/29 03:12:13;;;;;;;31.30;20.93;;;5.70;99.90;4.70;95788.00;;;;5088342;28;20245;-69
2021/04/29 03:15:01;;;;;;;33.03;20.87;;;5.60;99.90;4.60;95784.00;;;;5087811;28;20432;-68
2021/04/29 03:17:49;;;;;;;34.80;21.27;;;5.60;99.90;4.60;95785.00;;;;5092276;28;20203;-68
2021/04/29 03:20:49;;;;;;;29.57;20.10;;;5.60;99.90;4.60;95795.00;;;;5093133;28;20235;-69
2021/04/29 03:23:37;;;;;;;35.80;22.63;;;5.50;99.90;4.60;95790.00;;;;5086926;28;20219;-68
2021/04/29 03:26:26;;;;;;;35.43;22.80;;;5.50;99.90;4.70;95779.00;;;;5086922;28;20234;-69
2021/04/29 03:29:13;;;;;;;34.30;22.77;;;5.60;99.90;4.90;95780.00;;;;5086771;28;21177;-69
2021/04/29 03:32:02;;;;;;;40.00;22.30;;;5.60;99.90;4.80;95790.00;;;;5087353;28;20595;-68
2021/04/29 03:34:50;;;;;;;30.70;20.10;;;5.60;99.90;4.50;95787.00;;;;5088158;28;21024;-70
2021/04/29 03:37:38;;;;;;;32.57;20.57;;;5.60;99.90;4.30;95787.00;;;;5086553;28;20203;-70
2021/04/29 03:40:26;;;;;;;33.30;21.40;;;5.50;99.90;4.50;95789.00;;;;5094780;27;20214;-69
2021/04/29 03:43:15;;;;;;;34.00;19.07;;;5.40;99.90;4.70;95790.00;;;;5123324;27;20439;-68
2021/04/29 03:46:03;;;;;;;30.87;20.00;;;5.40;99.90;4.70;95790.00;;;;5099203;28;20467;-68
2021/04/29 03:48:51;;;;;;;31.23;21.00;;;5.50;99.90;4.60;95793.00;;;;5104229;28;20198;-69
2021/04/29 03:51:39;;;;;;;32.47;18.73;;;5.50;99.90;4.50;95785.00;;;;5089447;28;20230;-68
2021/04/29 03:54:27;;;;;;;29.63;19.60;;;5.50;99.90;4.50;95791.00;;;;5090311;28;20212;-68
2021/04/29 03:57:15;;;;;;;33.43;19.90;;;5.50;99.90;4.60;95797.00;;;;5091281;28;20701;-69
2021/04/29 04:00:06;;;;;;;36.80;20.70;;;5.50;99.90;4.80;95793.00;;;;5103651;28;20213;-70
2021/04/29 04:02:54;;;;;;;32.57;20.57;;;5.50;99.90;4.80;95802.00;;;;5096055;28;20208;-68
2021/04/29 04:05:42;;;;;;;30.00;18.47;;;5.60;99.90;4.90;95806.00;;;;5094330;28;20227;-69
2021/04/29 04:08:30;;;;;;;29.43;21.23;;;5.60;99.90;4.90;95803.00;;;;5088330;28;20226;-68
2021/04/29 04:11:18;;;;;;;38.13;19.73;;;5.70;99.90;4.90;95799.00;;;;5106117;28;20881;-69
2021/04/29 04:14:05;;;;;;;31.37;18.57;;;5.70;99.90;4.90;95805.00;;;;5077212;28;20207;-67
2021/04/29 04:16:55;;;;;;;30.07;17.77;;;5.70;99.90;5.00;95805.00;;;;5092667;28;20276;-70
2021/04/29 04:19:43;;;;;;;26.20;16.27;;;5.80;99.90;5.00;95819.00;;;;5086168;28;20207;-70
2021/04/29 04:22:31;;;;;;;26.83;17.17;;;5.80;99.90;5.10;95812.00;;;;5091977;28;20698;-70
2021/04/29 04:25:19;;;;;;;28.83;17.70;;;5.80;99.90;4.90;95810.00;;;;5097140;28;20233;-68
2021/04/29 04:28:07;;;;;;;29.30;19.00;;;5.80;99.90;4.70;95815.00;;;;5096962;28;20611;-70
2021/04/29 04:30:56;;;;;;;27.27;17.70;;;5.80;99.90;4.60;95817.00;;;;5090422;28;20227;-70
2021/04/29 04:33:45;;;;;;;28.83;19.13;;;5.70;99.90;4.60;95813.00;;;;5084829;28;20881;-70
2021/04/29 04:36:33;;;;;;;30.80;19.13;;;5.60;99.90;4.60;95818.00;;;;5085491;28;20210;-70
2021/04/29 04:39:20;;;;;;;31.50;20.43;;;5.60;99.90;4.80;95818.00;;;;5084990;28;20211;-69
2021/04/29 04:42:08;;;;;;;32.67;22.43;;;5.60;99.90;4.80;95818.00;;;;5098380;28;20222;-69
2021/04/29 04:45:00;;;;;;;37.17;22.70;;;5.60;99.90;5.10;95808.00;;;;5103770;28;20260;-70
2021/04/29 04:47:48;;;;;;;33.87;21.50;;;5.70;99.90;5.20;95816.00;;;;5120094;27;20439;-69
2021/04/29 04:50:38;;;;;;;34.80;21.00;;;5.80;99.90;5.30;95821.00;;;;5120832;27;20198;-70
2021/04/29 04:53:26;;;;;;;30.63;19.47;;;5.90;99.90;5.40;95811.00;;;;5118716;27;20201;-69
2021/04/29 04:56:14;;;;;;;25.03;17.33;;;6.00;99.90;5.20;95809.00;;;;5104834;28;20210;-69
2021/04/29 04:59:02;;;;;;;26.13;18.70;;;6.10;99.90;5.20;95817.00;;;;5107195;27;20198;-69
2021/04/29 05:01:49;;;;;;;28.80;20.40;;;6.10;99.90;5.30;95816.00;;;;5117649;27;20603;-69
2021/04/29 05:04:38;;;;;;;28.70;19.23;;;6.10;99.90;5.50;95810.00;;;;5113418;27;20249;-69
2021/04/29 05:07:27;;;;;;;27.70;18.90;;;6.20;99.90;5.50;95801.00;;;;5111592;28;20209;-69
2021/04/29 05:10:14;;;;;;;31.40;20.97;;;6.20;99.90;5.50;95802.00;;;;5116870;27;20210;-66
2021/04/29 05:13:03;;;;;;;35.20;19.47;;;6.30;99.90;5.60;95807.00;;;;5119324;27;20230;-70
2021/04/29 05:15:51;;;;;;;32.37;20.97;;;6.30;99.90;5.80;95813.00;;;;5123332;27;20202;-68
2021/04/29 05:18:39;;;;;;;30.63;22.47;;;6.40;99.90;6.00;95817.00;;;;5114858;27;20578;-69
2021/04/29 05:21:27;;;;;;;32.47;21.27;;;6.50;99.90;6.10;95824.00;;;;5121415;28;20592;-70
2021/04/29 05:24:16;;;;;;;35.47;22.10;;;6.60;99.90;6.10;95818.00;;;;5121898;28;20216;-69
2021/04/29 05:27:04;;;;;;;32.63;21.73;;;6.80;99.90;6.20;95816.00;;;;5115820;28;20599;-68
2021/04/29 05:29:54;;;;;;;29.97;19.23;;;6.80;99.90;6.20;95813.00;;;;5082991;28;20268;-70
2021/04/29 05:32:42;;;;;;;33.90;21.77;;;6.90;99.90;6.20;95810.00;;;;5083933;28;20231;-69
2021/04/29 05:35:30;;;;;;;28.40;19.63;;;6.90;99.90;6.30;95820.00;;;;5085004;28;20203;-69
2021/04/29 05:38:18;;;;;;;31.10;20.93;;;7.00;99.90;6.30;95819.00;;;;5083986;28;20230;-69
2021/04/29 05:41:06;;;;;;;35.03;20.47;;;7.00;99.90;6.30;95809.00;;;;5084271;28;20223;-68
2021/04/29 05:43:54;;;;;;;28.17;19.27;;;7.10;99.90;6.40;95806.00;;;;5119276;27;20198;-69
2021/04/29 05:46:43;;;;;;;24.80;18.50;;;7.10;99.90;6.70;95810.00;;;;5123115;27;20217;-68
2021/04/29 05:49:31;;;;;;;32.27;19.80;;;7.20;99.90;7.00;95814.00;;;;5119862;27;20248;-70
2021/04/29 05:52:19;;;;;;;27.57;18.70;;;7.40;99.90;7.10;95814.00;;;;5125726;27;20225;-69
2021/04/29 05:55:09;;;;;;;27.17;18.53;;;7.50;99.90;7.10;95808.00;;;;5125808;27;20263;-69
2021/04/29 05:57:59;;;;;;;28.50;16.87;;;7.70;99.90;7.40;95814.00;;;;5105740;28;20202;-69
2021/04/29 06:00:47;;;;;;;23.27;17.47;;;7.80;99.90;7.60;95799.00;;;;5088016;28;20219;-68
2021/04/29 06:03:35;;;;;;;26.57;16.50;;;8.00;99.90;7.90;95807.00;;;;5098804;27;20232;-68
2021/04/29 06:06:23;;;;;;;22.77;18.10;;;8.10;99.90;7.90;95805.00;;;;5107519;28;20293;-69
2021/04/29 06:09:11;;;;;;;26.63;17.57;;;8.30;99.90;7.80;95810.00;;;;5119022;27;20593;-69
2021/04/29 06:12:00;;;;;;;23.03;16.07;;;8.40;99.90;8.10;95809.00;;;;5120053;27;20222;-68
2021/04/29 06:14:49;;;;;;;25.30;16.67;;;8.50;99.90;8.50;95803.00;;;;5107338;28;20207;-70
2021/04/29 06:17:37;;;;;;;24.27;16.50;;;8.70;99.90;8.80;95800.00;;;;5112738;27;20198;-67
2021/04/29 06:20:25;;;;;;;23.53;16.83;;;8.90;99.90;9.10;95796.00;;;;5117358;27;20618;-68
2021/04/29 06:23:12;;;;;;;21.53;14.53;;;9.20;99.90;9.40;95796.00;;;;5108939;28;20199;-70
2021/04/29 06:26:01;;;;;;;21.73;15.90;;;9.50;99.90;9.50;95789.00;;;;5108335;28;20230;-67
2021/04/29 06:28:49;;;;;;;22.37;16.57;;;9.70;99.90;9.80;95791.00;;;;5107851;28;20221;-70
2021/04/29 06:31:39;;;;;;;21.23;14.30;;;9.90;99.90;10.00;95795.00;;;;5121693;27;20245;-68
2021/04/29 06:34:27;;;;;;;18.37;13.93;;;10.20;99.90;9.90;95799.00;;;;5107865;28;20199;-68
2021/04/29 06:37:15;;;;;;;22.00;13.97;;;10.30;99.90;10.20;95799.00;;;;5103941;27;20205;-69
2021/04/29 06:40:05;;;;;;;19.77;15.93;;;10.50;99.90;10.40;95800.00;;;;5099869;28;20218;-69
2021/04/29 06:42:53;;;;;;;19.27;15.17;;;10.60;99.90;10.60;95806.00;;;;5088119;28;20234;-69
2021/04/29 06:45:41;;;;;;;23.63;13.90;;;10.80;99.90;10.80;95796.00;;;;5085943;28;20230;-69
2021/04/29 06:48:30;;;;;;;16.47;14.03;;;10.90;99.90;10.90;95798.00;;;;5097890;28;20211;-68
2021/04/29 06:51:18;;;;;;;21.20;14.13;;;11.10;99.90;10.50;95788.00;;;;5115536;27;20700;-69
2021/04/29 06:54:20;;;;;;;19.27;13.73;;;11.20;99.90;10.80;95803.00;;;;5113659;27;20676;-69
2021/04/29 06:57:08;;;;;;;21.20;14.00;;;11.20;99.90;10.80;95795.00;;;;5108980;27;20229;-69
2021/04/29 06:59:56;;;;;;;19.23;12.93;;;11.30;99.90;11.20;95798.00;;;;5085869;28;20215;-69
2021/04/29 07:02:44;;;;;;;17.83;13.10;;;11.40;99.90;11.60;95790.00;;;;5092689;28;20223;-70
2021/04/29 07:05:33;;;;;;;22.67;12.97;;;11.60;99.90;11.70;95796.00;;;;5090251;28;20223;-69
2021/04/29 07:08:21;;;;;;;19.17;11.97;;;11.80;99.90;11.80;95797.00;;;;5119673;27;20561;-68
2021/04/29 07:11:09;;;;;;;19.60;13.00;;;12.00;99.90;12.00;95793.00;;;;5108833;27;20237;-69
2021/04/29 07:13:57;;;;;;;16.17;10.93;;;12.20;99.90;12.30;95792.00;;;;5106291;28;20229;-70
2021/04/29 07:16:44;;;;;;;13.77;10.83;;;12.40;99.90;12.60;95801.00;;;;5107184;28;20195;-70
2021/04/29 07:19:32;;;;;;;20.20;12.80;;;12.60;99.90;12.80;95795.00;;;;5110986;27;20195;-69
2021/04/29 07:22:21;;;;;;;16.27;12.50;;;12.80;99.90;13.00;95797.00;;;;5108632;28;20237;-69
2021/04/29 07:25:10;;;;;;;23.93;12.87;;;13.00;99.90;13.20;95801.00;;;;5107097;28;20678;-68
2021/04/29 07:27:58;;;;;;;15.87;11.13;;;13.20;99.90;13.50;95794.00;;;;5105667;28;20207;-69
2021/04/29 07:30:46;;;;;;;15.27;11.83;;;13.40;99.90;13.50;95801.00;;;;5106818;28;20213;-69
2021/04/29 07:33:34;;;;;;;16.00;10.63;;;13.60;99.90;13.50;95794.00;;;;5122994;27;20198;-70
2021/04/29 07:36:22;;;;;;;12.17;10.23;;;13.70;99.90;13.80;95800.00;;;;5120092;27;20243;-69
2021/04/29 07:39:11;;;;;;;13.77;9.53;;;13.90;99.90;14.00;95800.00;;;;5120980;27;20592;-69
2021/04/29 07:41:59;;;;;;;11.70;9.67;;;14.10;99.90;14.10;95811.00;;;;5104111;28;20230;-70
2021/04/29 07:44:46;;;;;;;12.53;9.07;;;14.30;99.90;14.40;95809.00;;;;5106616;28;20217;-70
2021/04/29 07:47:34;;;;;;;9.87;8.73;;;14.50;99.90;14.40;95795.00;;;;5106416;28;20199;-70
2021/04/29 07:50:22;;;;;;;11.17;8.63;;;14.60;99.90;14.70;95814.00;;;;5107240;27;20206;-70
2021/04/29 07:53:10;;;;;;;14.20;9.27;;;14.70;99.90;14.70;95812.00;;;;5116983;27;20759;-69
2021/04/29 07:55:59;;;;;;;7.60;6.77;;;14.80;99.90;14.70;95813.00;;;;5106431;28;20586;-69
2021/04/29 07:58:47;;;;;;;12.53;8.20;;;15.00;99.90;15.00;95815.00;;;;5106054;28;20202;-69
2021/04/29 08:01:35;;;;;;;9.43;7.60;;;15.10;99.90;15.30;95809.00;;;;5106993;28;20231;-70
2021/04/29 08:04:23;;;;;;;11.10;8.03;;;15.30;99.90;15.40;95817.00;;;;5108777;27;20199;-70
2021/04/29 08:07:11;;;;;;;10.03;8.50;;;15.40;99.90;15.40;95812.00;;;;5099032;28;20243;-68
2021/04/29 08:09:59;;;;;;;10.03;7.67;;;15.60;99.90;15.60;95802.00;;;;5089022;28;20202;-71
2021/04/29 08:12:48;;;;;;;10.63;8.07;;;15.70;99.90;15.50;95805.00;;;;5113341;27;20688;-70
2021/04/29 08:15:36;;;;;;;11.27;8.70;;;15.90;99.90;15.60;95797.00;;;;5106092;28;20202;-69
2021/04/29 08:18:24;;;;;;;10.07;6.87;;;15.90;99.90;16.00;95798.00;;;;5110937;27;20206;-71
2021/04/29 08:21:20;;;;;;;8.27;6.40;;;16.00;99.90;16.30;95798.00;;;;5119945;27;20602;-73
2021/04/29 08:24:08;;;;;;;11.10;6.90;;;16.20;99.90;16.30;95791.00;;;;5121316;27;20198;-72
2021/04/29 08:26:56;;;;;;;9.43;6.67;;;16.40;99.90;16.50;95794.00;;;;5104991;28;20226;-73
2021/04/29 08:29:45;;;;;;;11.07;8.03;;;16.50;99.90;16.60;95793.00;;;;5106725;28;20206;-73
2021/04/29 08:32:33;;;;;;;7.63;5.47;;;16.70;99.60;16.80;95787.00;;;;5105283;28;20222;-74
2021/04/29 08:35:22;;;;;;;6.60;5.03;;;16.90;98.20;17.00;95798.00;;;;5104367;28;20571;-72
2021/04/29 08:38:10;;;;;;;7.13;5.63;;;17.00;96.70;17.30;95793.00;;;;5083710;28;20267;-73
2021/04/29 08:40:58;;;;;;;5.77;4.10;;;17.20;95.10;17.50;95800.00;;;;5104354;28;20257;-72
2021/04/29 08:43:46;;;;;;;9.70;4.57;;;17.40;93.60;17.70;95792.00;;;;5105141;28;20202;-71
2021/04/29 08:46:34;;;;;;;7.65;5.53;;;17.60;91.80;18.00;95800.00;;;;5104713;28;20407;-72
2021/04/29 08:49:25;;;;;;;7.27;4.17;;;17.80;91.40;18.20;95806.00;;;;5105004;28;20693;-72
2021/04/29 08:52:14;;;;;;;5.53;4.33;;;18.10;89.80;18.70;95803.00;;;;5104839;28;20724;-72
2021/04/29 08:55:02;;;;;;;7.27;5.77;;;18.30;89.50;18.80;95798.00;;;;5118061;27;20239;-73
2021/04/29 08:57:50;;;;;;;5.77;4.93;;;18.60;89.30;18.10;95799.00;;;;5116063;27;20216;-73
2021/04/29 09:00:39;;;;;;;7.47;5.90;;;18.70;82.60;18.60;95813.00;;;;5106454;28;20216;-73
2021/04/29 09:03:32;;;;;;;10.03;6.07;;;18.70;83.70;19.10;95806.00;;;;5104540;28;20191;-73
2021/04/29 09:06:32;;;;;;;9.03;7.10;;;18.90;84.60;19.00;95818.00;;;;5103402;28;20342;-73
2021/04/29 09:09:20;;;;;;;8.67;7.00;;;19.10;84.00;19.30;95810.00;;;;5104077;28;20206;-70
2021/04/29 09:12:08;;;;;;;11.57;7.77;;;19.20;87.50;19.60;95818.00;;;;5104392;28;20232;-70
2021/04/29 09:14:56;;;;;;;8.57;7.10;;;19.40;85.70;19.50;95810.00;;;;5118549;27;20816;-69
2021/04/29 09:17:44;;;;;;;10.77;6.33;;;19.60;83.80;19.50;95819.00;;;;5122113;27;20204;-71
2021/04/29 09:20:33;;;;;;;8.27;6.43;;;19.70;80.80;19.10;95809.00;;;;5107873;27;20979;-71
2021/04/29 09:23:24;;;;;;;7.57;5.43;;;19.70;76.70;19.40;95818.00;;;;5114956;28;20221;-69
2021/04/29 09:26:14;;;;;;;9.77;5.70;;;19.60;78.70;19.50;95815.00;;;;5116478;28;20248;-70
2021/04/29 09:29:09;;;;;;;8.43;4.67;;;19.70;78.50;19.50;95808.00;;;;5104282;28;20204;-70
2021/04/29 09:31:57;;;;;;;7.20;4.83;;;19.80;75.00;19.30;95809.00;;;;5084520;28;20225;-71
2021/04/29 09:34:45;;;;;;;10.23;5.30;;;19.80;73.00;19.60;95817.00;;;;5089321;28;20210;-70
2021/04/29 09:37:36;;;;;;;5.20;4.70;;;19.80;75.60;19.70;95818.00;;;;5122479;27;20232;-70
2021/04/29 09:40:26;;;;;;;7.93;4.80;;;19.80;73.30;20.00;95825.00;;;;5105297;28;20218;-71
2021/04/29 09:43:14;;;;;;;14.50;5.87;;;20.00;73.90;20.30;95829.00;;;;5106624;28;20213;-71
2021/04/29 09:46:04;;;;;;;12.43;7.77;;;20.10;74.90;20.40;95828.00;;;;5111455;28;20214;-71
2021/04/29 09:48:52;;;;;;;11.47;9.03;;;20.30;74.10;20.20;95837.00;;;;5108843;28;20194;-70
2021/04/29 09:51:40;;;;;;;11.70;7.70;;;20.40;72.40;20.00;95833.00;;;;5105251;28;20605;-71
2021/04/29 09:54:32;;;;;;;13.67;8.77;;;20.40;72.10;20.40;95831.00;;;;5120158;28;20216;-69
2021/04/29 09:57:24;;;;;;;13.37;9.50;;;20.50;73.50;20.60;95831.00;;;;5118597;28;20199;-69
2021/04/29 10:00:13;;;;;;;11.37;8.30;;;20.60;73.80;21.00;95837.00;;;;5084688;28;20211;-71
2021/04/29 10:03:03;;;;;;;13.80;8.77;;;20.80;74.50;21.10;95837.00;;;;5103985;28;20217;-69
2021/04/29 10:05:53;;;;;;;16.17;9.90;;;21.00;74.20;21.20;95844.00;;;;5104511;28;20689;-71
2021/04/29 10:08:41;;;;;;;17.77;9.97;;;21.10;73.50;21.00;95824.00;;;;5082925;28;20580;-71
2021/04/29 10:11:30;;;;;;;18.80;11.03;;;21.20;72.80;21.50;95827.00;;;;5105926;28;20227;-71
2021/04/29 10:14:19;;;;;;;12.57;10.17;;;21.30;73.10;21.00;95823.00;;;;5103162;28;20213;-71
2021/04/29 10:17:09;;;;;;;17.07;10.03;;;21.40;70.90;21.20;95833.00;;;;5103900;28;20202;-71
2021/04/29 10:20:00;;;;;;;20.87;11.33;;;21.40;71.80;21.00;95826.00;;;;5105093;28;20259;-71
2021/04/29 10:22:48;;;;;;;14.77;9.83;;;21.30;70.50;21.50;95820.00;;;;5121305;28;20226;-71
2021/04/29 10:25:37;;;;;;;12.43;9.20;;;21.40;70.90;21.30;95827.00;;;;5115059;28;20202;-69
2021/04/29 10:28:37;;;;;;;14.57;9.03;;;21.50;70.40;20.60;95817.00;;;;5101908;28;20205;-70
2021/04/29 10:31:27;;;;;;;13.07;8.40;;;21.40;67.80;21.00;95829.00;;;;5115576;27;20601;-71
2021/04/29 10:34:17;;;;;;;10.03;8.63;;;22.00;70.70;21.00;95827.00;;;;5120691;27;20202;-70
2021/04/29 10:37:16;;;;;;;12.50;6.63;;;21.40;67.70;22.00;95829.00;;;;5113741;27;20202;-71
2021/04/29 10:40:07;;;;;;;12.47;7.00;;;21.60;69.80;22.20;95839.00;;;;5107562;28;20207;-71
2021/04/29 10:42:55;;;;;;;13.17;8.37;;;21.80;67.60;21.00;95818.00;;;;5108925;28;20238;-70
2021/04/29 10:45:53;;;;;;;8.33;4.60;;;21.80;63.80;21.70;95826.00;;;;5119983;27;20190;-71
2021/04/29 10:48:51;;;;;;;4.80;3.70;;;21.80;67.70;22.00;95825.00;;;;5103207;28;20195;-69
2021/04/29 10:51:41;;;;;;;4.80;3.33;;;21.90;64.30;21.60;95811.00;;;;5117989;27;20229;-71
2021/04/29 10:54:29;;;;;;;5.33;3.53;;;21.80;60.60;21.60;95811.00;;;;5116018;27;20197;-71
2021/04/29 10:57:17;;;;;;;4.57;2.93;;;21.80;62.40;21.50;95804.00;;;;5124736;27;20937;-71
2021/04/29 11:00:08;;;;;;;6.23;2.87;;;21.90;62.40;22.40;95804.00;;;;5125079;27;20202;-70
2021/04/29 11:03:02;;;;;;;3.23;2.63;;;22.00;61.50;22.80;95794.00;;;;5107915;28;20211;-71
2021/04/29 11:05:51;;;;;;;3.97;2.93;;;22.30;61.90;23.80;95803.00;;;;5114003;27;20263;-71
2021/04/29 11:08:46;;;;;;;3.53;3.00;;;22.70;62.40;23.60;95813.00;;;;5119798;27;20205;-71
2021/04/29 11:11:36;;;;;;;4.00;2.80;;;23.10;59.50;23.90;95796.00;;;;5122340;27;20722;-71
2021/04/29 11:14:24;;;;;;;3.77;2.57;;;23.40;60.00;24.70;95792.00;;;;5127652;27;20277;-72
2021/04/29 11:17:21;;;;;;;6.60;2.70;;;23.80;60.60;24.80;95780.00;;;;5127915;27;20202;-71
2021/04/29 11:20:12;;;;;;;6.30;3.43;;;24.10;59.00;25.30;95784.00;;;;5124798;27;20248;-72
2021/04/29 11:23:00;;;;;;;7.87;3.97;;;24.60;58.80;24.70;95779.00;;;;5123421;27;20208;-70
2021/04/29 11:25:48;;;;;;;5.47;3.03;;;24.70;57.50;25.20;95787.00;;;;5127165;27;20222;-71
2021/04/29 11:28:37;;;;;;;3.63;2.93;;;24.90;56.40;24.10;95769.00;;;;5120619;27;20202;-70
2021/04/29 11:31:25;;;;;;;4.50;2.60;;;24.90;53.90;24.70;95766.00;;;;5104873;28;20222;-71
2021/04/29 11:34:13;;;;;;;4.47;2.60;;;24.80;55.00;25.70;95754.00;;;;5106556;28;20203;-71
2021/04/29 11:37:01;;;;;;;3.37;2.77;;;25.00;56.50;25.10;95747.00;;;;5127298;27;20206;-70
2021/04/29 11:40:01;;;;;;;3.40;2.17;;;25.30;54.30;25.30;95757.00;;;;5113466;27;20202;-72
2021/04/29 11:42:53;;;;;;;2.57;1.97;;;25.20;54.80;26.30;95759.00;;;;5123153;27;20235;-70
2021/04/29 11:45:42;;;;;;;3.70;2.63;;;25.40;55.30;26.40;95750.00;;;;5121137;27;20701;-72
2021/04/29 11:48:32;;;;;;;4.17;2.60;;;25.80;55.20;25.70;95813.00;;;;5121608;27;20197;-72
2021/04/29 11:51:20;;;;;;;3.40;2.87;;;26.00;53.00;24.70;95764.00;;;;5121480;27;20224;-71
2021/04/29 11:54:10;;;;;;;4.80;2.23;;;25.50;53.20;25.50;95729.00;;;;5121145;27;20223;-70
2021/04/29 11:57:02;;;;;;;3.10;1.90;;;25.70;52.70;25.90;95714.00;;;;5116850;27;20223;-73
2021/04/29 11:59:52;;;;;;;1.93;1.63;;;25.90;51.00;25.70;95704.00;;;;5121302;27;20201;-74
2021/04/29 12:02:39;;;;;;;2.00;1.77;;;25.90;51.70;23.30;95744.00;;;;5122207;27;20215;-74
2021/04/29 12:05:41;;;;;;;1.67;1.20;;;24.90;49.80;22.30;95779.00;;;;5124849;27;20285;-74
2021/04/29 12:08:33;;;;;;;5.43;1.20;;;23.70;51.30;22.20;95709.00;;;;5118172;27;20213;-70
2021/04/29 12:11:21;;;;;;;2.57;1.00;;;23.20;51.50;22.90;95698.00;;;;5116084;27;20235;-73
2021/04/29 12:14:13;;;;;;;1.97;1.10;;;23.10;52.40;23.10;95693.00;;;;5117483;27;20202;-73
2021/04/29 12:17:03;;;;;;;2.00;0.80;;;23.00;52.10;23.30;95673.00;;;;5105985;28;20562;-73
2021/04/29 12:19:53;;;;;;;2.50;0.70;;;23.40;52.20;23.40;95702.00;;;;5104326;28;20199;-73
2021/04/29 12:22:41;;;;;;;0.60;0.60;;;23.10;51.70;23.60;95688.00;;;;5085276;28;20223;-73
2021/04/29 12:25:29;;;;;;;1.00;0.77;;;23.40;51.60;24.20;95685.00;;;;5084518;28;20276;-70
2021/04/29 12:28:19;;;;;;;0.50;0.50;;;23.70;51.00;23.20;95682.00;;;;5110455;27;20293;-73